Time;durP1;ratioP1;P1;durP2;ratioP2;P2;SDS_P1;SDS_P2;PMS_P1;PMS_P2;Temp;Humidity;BMP_temperature;BMP_pressure;BME280_temperature;BME280_humidity;BME280_pressure;Samples;Min_cycle;Max_cycle;Signal;HPM_P1;HPM_P2
2022/11/04 00:01:25;;;;;;;;;;;;;;;12.53;51.67;99567.19;4941505;28;115603;-65
2022/11/04 00:03:52;;;;;;;;;;;;;;;12.51;51.78;99564.81;4940075;28;128866;-65
2022/11/04 00:06:17;;;;;;;;;;;;;;;12.50;51.94;99571.31;4944093;28;98134;-66
2022/11/04 00:08:48;;;;;;;;;;;;;;;12.49;51.93;99563.50;4928624;28;101546;-65
2022/11/04 00:13:58;;;;;;;;;;;;;;;12.44;51.85;99553.59;4938328;28;98043;-65
2022/11/04 00:19:09;;;;;;;;;;;;;;;12.41;51.98;99559.59;4942391;28;97972;-64
2022/11/04 00:29:48;;;;;;;;;;;;;;;12.34;51.95;99553.81;4938078;28;98079;-64
2022/11/04 00:34:58;;;;;;;;;;;;;;;12.31;51.95;99557.09;4936107;28;98945;-65
2022/11/04 00:37:25;;;;;;;;;;;;;;;12.29;51.80;99560.09;4942905;28;109580;-65
2022/11/04 00:39:50;;;;;;;;;;;;;;;12.28;51.86;99557.69;4941798;28;110533;-66
2022/11/04 00:42:16;;;;;;;;;;;;;;;12.26;51.92;99544.50;4943100;28;110531;-64
2022/11/04 00:44:42;;;;;;;;;;;;;;;12.24;51.86;99544.00;4915699;28;124559;-65
2022/11/04 00:47:08;;;;;;;;;;;;;;;12.23;51.67;99544.31;4938989;28;122438;-65
2022/11/04 00:49:34;;;;;;;;;;;;;;;12.20;51.88;99550.31;4942704;28;117529;-66
2022/11/04 00:52:00;;;;;;;;;;;;;;;12.20;51.93;99544.91;4955382;28;98393;-64
2022/11/04 00:54:26;;;;;;;;;;;;;;;12.17;51.71;99540.88;4941970;28;127967;-64
2022/11/04 00:56:52;;;;;;;;;;;;;;;12.17;51.94;99534.69;4939490;28;127278;-64
2022/11/04 00:59:18;;;;;;;;;;;;;;;12.15;51.96;99540.41;4944423;28;97954;-64
2022/11/04 01:01:45;;;;;;;;;;;;;;;12.13;51.86;99539.88;4943021;28;128924;-65
2022/11/04 01:04:11;;;;;;;;;;;;;;;12.12;51.95;99546.38;4942472;28;98579;-65
2022/11/04 01:06:37;;;;;;;;;;;;;;;12.11;52.05;99546.69;4940822;28;126281;-63
2022/11/04 01:09:04;;;;;;;;;;;;;;;12.10;51.83;99542.38;4940966;28;98003;-64
2022/11/04 01:11:30;;;;;;;;;;;;;;;12.07;51.77;99541.09;4941198;28;125367;-63
2022/11/04 01:13:57;;;;;;;;;;;;;;;12.06;51.92;99542.16;4942478;28;99178;-64
2022/11/04 01:16:22;;;;;;;;;;;;;;;12.04;51.96;99537.06;4941182;28;98104;-65
2022/11/04 01:18:48;;;;;;;;;;;;;;;12.03;52.00;99543.59;4943143;28;117159;-64
2022/11/04 01:21:15;;;;;;;;;;;;;;;12.01;51.97;99537.66;4943009;28;118904;-65
2022/11/04 01:23:41;;;;;;;;;;;;;;;11.98;51.94;99534.75;4942413;28;123415;-65
2022/11/04 01:26:15;;;;;;;;;;;;;;;11.97;51.93;99531.25;4938905;28;100023;-65
2022/11/04 01:28:41;;;;;;;;;;;;;;;11.98;52.06;99540.16;4959935;28;98481;-65
2022/11/04 01:31:08;;;;;;;;;;;;;;;11.96;51.92;99537.78;4940456;28;128270;-64
2022/11/04 01:33:35;;;;;;;;;;;;;;;11.94;52.01;99529.16;4941523;28;97899;-64
2022/11/04 01:36:00;;;;;;;;;;;;;;;11.94;51.94;99537.25;4940151;28;104604;-64
2022/11/04 01:38:27;;;;;;;;;;;;;;;11.93;52.05;99524.84;4941951;28;103135;-66
2022/11/04 01:40:53;;;;;;;;;;;;;;;11.91;51.91;99524.38;4941107;28;122726;-64
2022/11/04 01:43:20;;;;;;;;;;;;;;;11.90;51.85;99527.34;4940329;28;127727;-64
2022/11/04 01:45:50;;;;;;;;;;;;;;;11.90;52.01;99524.66;4940503;28;127063;-65
2022/11/04 01:48:20;;;;;;;;;;;;;;;11.88;51.93;99519.56;4939028;28;97944;-64
2022/11/04 01:50:46;;;;;;;;;;;;;;;11.87;52.03;99517.16;4944858;28;99049;-64
2022/11/04 01:53:15;;;;;;;;;;;;;;;11.87;52.02;99514.44;4938630;28;128291;-65
2022/11/04 01:55:42;;;;;;;;;;;;;;;11.85;51.95;99516.66;4940275;28;122138;-64
2022/11/04 01:58:10;;;;;;;;;;;;;;;11.85;52.08;99511.25;4958066;28;97848;-65
2022/11/04 02:00:38;;;;;;;;;;;;;;;11.83;52.00;99508.88;4940977;28;98842;-64
2022/11/04 02:03:15;;;;;;;;;;;;;;;11.82;51.98;99509.91;4947444;28;98879;-64
2022/11/04 02:05:41;;;;;;;;;;;;;;;11.80;52.02;99501.31;4946520;28;121344;-64
2022/11/04 02:08:07;;;;;;;;;;;;;;;11.80;51.99;99504.81;4942453;28;117355;-64
2022/11/04 02:10:33;;;;;;;;;;;;;;;11.80;52.06;99514.81;4940030;28;127444;-65
2022/11/04 02:13:01;;;;;;;;;;;;;;;11.79;52.05;99521.34;4940539;28;98568;-64
2022/11/04 02:15:52;;;;;;;;;;;;;;;11.78;52.00;99519.72;4938727;28;114959;-64
2022/11/04 02:18:39;;;;;;;;;;;;;;;11.77;52.07;99505.41;4947237;28;116462;-66
2022/11/04 02:21:10;;;;;;;;;;;;;;;11.77;52.16;99499.22;4939803;28;98917;-65
2022/11/04 02:26:39;;;;;;;;;;;;;;;11.78;52.09;99512.41;4934982;28;127232;-63
2022/11/04 02:29:29;;;;;;;;;;;;;;;11.79;51.89;99521.34;4946121;28;98081;-66
2022/11/04 02:32:16;;;;;;;;;;;;;;;11.79;51.92;99513.22;4937053;28;98981;-65
2022/11/04 02:35:00;;;;;;;;;;;;;;;11.78;52.10;99511.59;4939790;28;98097;-66
2022/11/04 02:37:59;;;;;;;;;;;;;;;11.79;52.05;99530.22;4925761;28;97974;-65
2022/11/04 02:40:49;;;;;;;;;;;;;;;11.79;52.08;99527.53;4937429;28;117986;-64
2022/11/04 02:43:34;;;;;;;;;;;;;;;11.80;52.10;99517.53;4936540;28;98758;-65
2022/11/04 02:46:14;;;;;;;;;;;;;;;11.79;51.91;99527.53;4940934;28;98659;-65
2022/11/04 02:49:06;;;;;;;;;;;;;;;11.79;52.09;99534.84;4955806;28;125672;-65
2022/11/04 02:51:37;;;;;;;;;;;;;;;11.80;52.01;99544.53;4939161;28;98101;-64
2022/11/04 02:54:05;;;;;;;;;;;;;;;11.80;52.10;99539.91;4944569;28;98818;-65
2022/11/04 02:56:31;;;;;;;;;;;;;;;11.80;52.15;99531.81;4949712;28;99224;-64
2022/11/04 02:59:00;;;;;;;;;;;;;;;11.80;52.04;99521.03;4944292;28;121550;-64
2022/11/04 03:01:28;;;;;;;;;;;;;;;11.82;52.01;99534.22;4925986;28;114412;-64
2022/11/04 03:03:58;;;;;;;;;;;;;;;11.83;51.96;99538.56;4924671;28;110114;-64
2022/11/04 03:06:24;;;;;;;;;;;;;;;11.83;52.00;99551.22;4922527;28;98727;-65
2022/11/04 03:08:51;;;;;;;;;;;;;;;11.85;51.83;99554.47;4925092;28;108233;-65
2022/11/04 03:11:18;;;;;;;;;;;;;;;11.85;51.90;99549.84;4955147;28;97943;-64
2022/11/04 03:13:46;;;;;;;;;;;;;;;11.86;51.87;99556.84;4944177;28;126543;-65
2022/11/04 03:16:15;;;;;;;;;;;;;;;11.86;52.04;99548.75;4943843;28;98610;-64
2022/11/04 03:19:01;;;;;;;;;;;;;;;11.87;52.02;99555.78;4929980;28;123699;-65
2022/11/04 03:21:27;;;;;;;;;;;;;;;11.89;52.14;99541.97;4958980;28;98439;-65
2022/11/04 03:23:53;;;;;;;;;;;;;;;11.93;51.84;99564.56;4924694;28;99070;-64
2022/11/04 03:26:28;;;;;;;;;;;;;;;12.01;52.13;99550.38;4944268;28;129726;-65
2022/11/04 03:29:21;;;;;;;;;;;;;;;12.09;52.06;99548.88;4950009;28;98676;-65
2022/11/04 03:31:57;;;;;;;;;;;;;;;12.17;52.15;99538.19;4937796;28;101334;-64
2022/11/04 03:34:23;;;;;;;;;;;;;;;12.23;51.92;99534.28;4938331;28;98764;-64
2022/11/04 03:36:49;;;;;;;;;;;;;;;12.27;51.99;99539.91;4940809;28;126853;-65
2022/11/04 03:39:15;;;;;;;;;;;;;;;12.32;51.95;99552.50;4939423;28;127346;-65
2022/11/04 03:41:45;;;;;;;;;;;;;;;12.33;52.00;99540.59;4939892;28;102169;-64
2022/11/04 03:44:11;;;;;;;;;;;;;;;12.37;52.17;99544.28;4925580;28;125368;-64
2022/11/04 03:46:37;;;;;;;;;;;;;;;12.39;52.19;99551.00;4940133;28;98828;-64
2022/11/04 03:49:03;;;;;;;;;;;;;;;12.41;52.11;99540.66;4942253;28;119967;-64
2022/11/04 03:51:29;;;;;;;;;;;;;;;12.43;52.04;99543.09;4925199;28;116226;-65
2022/11/04 03:53:55;;;;;;;;;;;;;;;12.45;52.07;99538.97;4943205;28;98199;-63
2022/11/04 03:56:43;;;;;;;;;;;;;;;12.45;52.07;99536.25;4937856;28;107777;-65
2022/11/04 03:59:15;;;;;;;;;;;;;;;12.45;52.13;99527.34;4922448;28;99058;-65
2022/11/04 04:01:59;;;;;;;;;;;;;;;12.47;52.01;99538.69;4943643;28;97913;-65
2022/11/04 04:04:39;;;;;;;;;;;;;;;12.48;52.19;99534.88;4945625;28;98986;-64
2022/11/04 04:07:09;;;;;;;;;;;;;;;12.48;52.00;99529.47;4956650;28;98568;-64
2022/11/04 04:12:58;;;;;;;;;;;;;;;12.48;51.98;99535.66;4956485;28;98192;-66
2022/11/04 04:15:28;;;;;;;;;;;;;;;12.47;52.30;99538.69;4936964;28;121033;-65
2022/11/04 04:18:02;;;;;;;;;;;;;;;12.47;52.13;99528.66;4926431;28;120973;-65
2022/11/04 04:20:28;;;;;;;;;;;;;;;12.47;52.29;99519.75;4938970;28;98568;-64
2022/11/04 04:22:56;;;;;;;;;;;;;;;12.44;52.22;99518.44;4925814;28;115160;-65
2022/11/04 04:28:09;;;;;;;;;;;;;;;12.46;52.27;99527.06;4923759;28;98135;-65
2022/11/04 04:30:35;;;;;;;;;;;;;;;12.44;52.05;99526.56;4941542;28;120537;-65
2022/11/04 04:33:03;;;;;;;;;;;;;;;12.46;52.13;99540.59;4943004;28;116167;-65
2022/11/04 04:35:45;;;;;;;;;;;;;;;12.45;52.03;99532.75;4945114;28;98262;-65
2022/11/04 04:46:50;;;;;;;;;;;;;;;12.43;52.33;99549.28;4939493;28;98079;-65
2022/11/04 04:49:16;;;;;;;;;;;;;;;12.43;52.09;99562.00;4928524;28;98872;-65
2022/11/04 04:51:46;;;;;;;;;;;;;;;12.43;52.15;99556.59;4941445;28;128436;-65
2022/11/04 04:54:12;;;;;;;;;;;;;;;12.41;52.15;99546.06;4924253;28;100383;-64
2022/11/04 04:56:37;;;;;;;;;;;;;;;12.41;52.33;99553.38;4942211;28;125898;-65
2022/11/04 04:59:03;;;;;;;;;;;;;;;12.41;52.22;99556.09;4939271;28;127929;-64
2022/11/04 05:01:30;;;;;;;;;;;;;;;12.40;52.18;99563.41;4940537;28;97992;-65
2022/11/04 05:03:56;;;;;;;;;;;;;;;12.40;52.27;99568.81;4939990;28;97839;-66
2022/11/04 05:06:22;;;;;;;;;;;;;;;12.39;52.30;99572.63;4942454;28;127976;-66
2022/11/04 05:08:48;;;;;;;;;;;;;;;12.40;52.21;99571.50;4937901;28;130037;-65
2022/11/04 05:11:14;;;;;;;;;;;;;;;12.39;52.28;99575.31;4935100;28;127465;-66
2022/11/04 05:13:40;;;;;;;;;;;;;;;12.40;52.41;99576.13;4945398;28;117788;-65
2022/11/04 05:16:07;;;;;;;;;;;;;;;12.40;52.14;99576.91;4938906;28;128985;-66
2022/11/04 05:18:33;;;;;;;;;;;;;;;12.41;52.12;99577.72;4946940;28;128200;-65
2022/11/04 05:21:06;;;;;;;;;;;;;;;12.39;52.06;99575.31;4947780;28;115982;-65
2022/11/04 05:23:32;;;;;;;;;;;;;;;12.41;52.06;99581.22;4942304;28;113693;-65
2022/11/04 05:25:58;;;;;;;;;;;;;;;12.41;52.28;99577.72;4945262;28;98711;-65
2022/11/04 05:28:24;;;;;;;;;;;;;;;12.42;52.19;99580.13;4941347;28;127961;-65
2022/11/04 05:30:50;;;;;;;;;;;;;;;12.43;52.03;99581.72;4942142;28;127173;-65
2022/11/04 05:33:16;;;;;;;;;;;;;;;12.43;52.19;99592.53;4941363;28;116703;-66
2022/11/04 05:35:42;;;;;;;;;;;;;;;12.45;52.03;99586.81;4949705;28;98251;-65
2022/11/04 05:38:08;;;;;;;;;;;;;;;12.45;52.16;99584.91;4963416;28;128310;-65
2022/11/04 05:40:34;;;;;;;;;;;;;;;12.46;52.21;99585.75;4947455;28;126331;-64
2022/11/04 05:43:00;;;;;;;;;;;;;;;12.46;52.10;99583.84;4955753;28;116622;-65
2022/11/04 05:45:26;;;;;;;;;;;;;;;12.47;52.12;99590.84;4949533;28;128547;-64
2022/11/04 05:48:03;;;;;;;;;;;;;;;12.47;52.17;99585.44;4948679;28;98642;-65
2022/11/04 05:50:30;;;;;;;;;;;;;;;12.49;52.08;99601.34;4941995;28;113556;-66
2022/11/04 05:52:57;;;;;;;;;;;;;;;12.49;52.07;99598.63;4945435;28;97917;-65
2022/11/04 05:55:23;;;;;;;;;;;;;;;12.50;52.27;99600.25;4917445;28;98509;-65
2022/11/04 05:57:49;;;;;;;;;;;;;;;12.50;52.33;99603.75;4949516;28;98774;-66
2022/11/04 06:00:15;;;;;;;;;;;;;;;12.51;52.32;99605.34;4941779;28;127885;-64
2022/11/04 06:02:41;;;;;;;;;;;;;;;12.52;52.11;99606.16;4942979;28;117643;-65
2022/11/04 06:05:07;;;;;;;;;;;;;;;12.53;51.97;99610.44;4944620;28;110771;-66
2022/11/04 06:07:33;;;;;;;;;;;;;;;12.55;52.15;99607.47;4944421;28;107854;-66
2022/11/04 06:09:59;;;;;;;;;;;;;;;12.55;52.04;99610.97;4952407;28;126711;-65
2022/11/04 06:12:25;;;;;;;;;;;;;;;12.56;52.22;99606.34;4942679;28;99259;-65
2022/11/04 06:14:51;;;;;;;;;;;;;;;12.57;52.15;99608.75;4943490;28;98200;-65
2022/11/04 06:17:18;;;;;;;;;;;;;;;12.58;51.97;99615.78;4941029;28;127970;-64
2022/11/04 06:19:44;;;;;;;;;;;;;;;12.60;51.98;99613.56;4943293;28;120564;-66
2022/11/04 06:22:14;;;;;;;;;;;;;;;12.61;52.27;99617.84;4938954;28;117458;-65
2022/11/04 06:24:40;;;;;;;;;;;;;;;12.63;52.04;99617.56;4939462;28;128202;-65
2022/11/04 06:27:06;;;;;;;;;;;;;;;12.62;52.25;99613.28;4938979;28;98666;-65
2022/11/04 06:29:32;;;;;;;;;;;;;;;12.65;52.06;99612.66;4940421;28;121245;-65
2022/11/04 06:31:58;;;;;;;;;;;;;;;12.65;51.91;99605.31;4941620;28;98108;-65
2022/11/04 06:34:24;;;;;;;;;;;;;;;12.67;52.12;99615.84;4935770;28;98404;-66
2022/11/04 06:36:50;;;;;;;;;;;;;;;12.69;52.23;99613.63;4938363;28;127490;-65
2022/11/04 06:39:16;;;;;;;;;;;;;;;12.70;52.25;99621.47;4938099;28;128056;-65
2022/11/04 06:41:45;;;;;;;;;;;;;;;12.71;52.02;99619.56;4936200;28;116870;-65
2022/11/04 06:44:10;;;;;;;;;;;;;;;12.73;51.86;99620.03;4950885;28;128504;-66
2022/11/04 06:46:41;;;;;;;;;;;;;;;12.78;52.21;99619.97;4936048;28;125856;-66
2022/11/04 06:49:10;;;;;;;;;;;;;;;12.83;51.95;99619.06;4940842;28;98347;-65
2022/11/04 06:51:36;;;;;;;;;;;;;;;12.88;52.13;99613.53;4936783;28;113833;-64
2022/11/04 06:54:02;;;;;;;;;;;;;;;12.91;51.95;99604.81;4943852;28;128464;-65
2022/11/04 06:56:28;;;;;;;;;;;;;;;12.93;51.93;99616.94;4938880;28;122516;-65
2022/11/04 06:58:54;;;;;;;;;;;;;;;12.98;52.04;99618.72;4942672;28;114494;-65
2022/11/04 07:01:21;;;;;;;;;;;;;;;13.04;51.63;99633.72;4937685;28;97937;-65
2022/11/04 07:03:51;;;;;;;;;;;;;;;13.10;51.90;99640.66;4940891;28;99094;-65
2022/11/04 07:06:18;;;;;;;;;;;;;;;13.14;51.87;99638.94;4937520;28;98355;-65
2022/11/04 07:08:44;;;;;;;;;;;;;;;13.18;51.79;99629.09;4939096;28;98063;-66
2022/11/04 07:11:10;;;;;;;;;;;;;;;13.23;51.77;99612.78;4943331;28;97872;-66
2022/11/04 07:13:36;;;;;;;;;;;;;;;13.30;51.56;99627.81;4939131;28;117359;-66
2022/11/04 07:16:06;;;;;;;;;;;;;;;13.37;51.80;99633.59;4946636;28;98451;-66
2022/11/04 07:18:32;;;;;;;;;;;;;;;13.46;51.30;99631.75;4939205;28;103974;-66
2022/11/04 07:20:58;;;;;;;;;;;;;;;13.59;51.55;99630.09;4942012;28;117972;-65
2022/11/04 07:23:23;;;;;;;;;;;;;;;13.70;51.09;99612.50;4939674;28;121323;-65
2022/11/04 07:25:49;;;;;;;;;;;;;;;13.79;51.35;99612.56;4938925;28;128205;-65
2022/11/04 07:28:15;;;;;;;;;;;;;;;13.87;51.43;99618.06;4940399;28;127142;-66
2022/11/04 07:30:41;;;;;;;;;;;;;;;13.97;51.43;99606.94;4944829;28;118163;-65
2022/11/04 07:33:07;;;;;;;;;;;;;;;14.05;51.39;99607.31;4937023;28;127604;-65
2022/11/04 07:35:34;;;;;;;;;;;;;;;14.06;51.28;99600.75;4933844;28;127035;-66
2022/11/04 07:38:02;;;;;;;;;;;;;;;14.02;51.42;99608.72;4936956;28;98130;-65
2022/11/04 07:40:28;;;;;;;;;;;;;;;14.09;51.41;99622.63;4933782;28;98043;-65
2022/11/04 07:42:54;;;;;;;;;;;;;;;14.11;51.52;99625.84;4936363;28;98828;-65
2022/11/04 07:45:20;;;;;;;;;;;;;;;14.09;51.54;99625.34;4932816;28;128317;-65
2022/11/04 07:47:46;;;;;;;;;;;;;;;14.15;51.09;99632.22;4953293;28;122643;-65
2022/11/04 07:50:12;;;;;;;;;;;;;;;14.19;51.34;99635.91;4933698;28;115344;-65
2022/11/04 07:52:38;;;;;;;;;;;;;;;14.25;51.45;99637.38;4940203;28;98435;-65
2022/11/04 07:55:04;;;;;;;;;;;;;;;14.30;51.04;99646.47;4936077;28;98754;-65
2022/11/04 07:57:30;;;;;;;;;;;;;;;14.36;51.35;99642.53;4943278;28;98287;-65
2022/11/04 07:59:56;;;;;;;;;;;;;;;14.39;51.36;99639.22;4942816;28;117900;-65
2022/11/04 08:02:22;;;;;;;;;;;;;;;14.40;51.53;99629.94;4940745;28;98511;-65
2022/11/04 08:04:49;;;;;;;;;;;;;;;14.44;51.51;99623.59;4944492;28;127767;-65
2022/11/04 08:07:15;;;;;;;;;;;;;;;14.47;51.14;99614.84;4940312;28;98067;-65
2022/11/04 08:09:41;;;;;;;;;;;;;;;14.54;51.09;99624.44;4946404;28;116566;-65
2022/11/04 08:12:07;;;;;;;;;;;;;;;14.54;51.35;99643.41;4941670;28;111557;-65
2022/11/04 08:14:33;;;;;;;;;;;;;;;14.49;51.25;99655.22;4942608;28;97844;-65
2022/11/04 08:16:59;;;;;;;;;;;;;;;14.46;51.31;99655.78;4940617;28;106599;-65
2022/11/04 08:19:25;;;;;;;;;;;;;;;14.44;51.80;99658.84;4941489;28;115638;-66
2022/11/04 08:21:51;;;;;;;;;;;;;;;14.42;51.48;99657.53;4945636;28;98689;-65
2022/11/04 08:24:17;;;;;;;;;;;;;;;14.36;51.79;99656.09;4936823;28;126015;-65
2022/11/04 08:26:45;;;;;;;;;;;;;;;14.30;51.58;99652.69;4944363;28;127914;-67
2022/11/04 08:29:11;;;;;;;;;;;;;;;14.27;51.67;99652.53;4938538;28;97952;-65
2022/11/04 08:31:37;;;;;;;;;;;;;;;14.23;51.62;99660.50;4936732;28;98568;-65
2022/11/04 08:34:04;;;;;;;;;;;;;;;14.19;52.11;99668.44;4940195;28;122073;-65
2022/11/04 08:36:35;;;;;;;;;;;;;;;14.22;51.92;99661.59;4938772;28;97883;-66
2022/11/04 08:39:03;;;;;;;;;;;;;;;14.29;51.50;99645.69;4936648;28;98545;-65
2022/11/04 08:41:29;;;;;;;;;;;;;;;14.34;51.55;99642.03;4937867;28;99498;-65
2022/11/04 08:43:59;;;;;;;;;;;;;;;14.33;51.52;99654.00;4938839;28;98922;-66
2022/11/04 08:46:27;;;;;;;;;;;;;;;14.29;51.62;99655.72;4938960;28;97992;-65
2022/11/04 08:48:52;;;;;;;;;;;;;;;14.28;51.81;99654.13;4939419;28;100306;-65
2022/11/04 08:51:22;;;;;;;;;;;;;;;14.22;51.91;99651.53;4940340;28;125885;-65
2022/11/04 08:53:48;;;;;;;;;;;;;;;14.18;51.88;99647.84;4941362;28;109790;-65
2022/11/04 08:56:35;;;;;;;;;;;;;;;14.15;52.20;99647.69;4939779;28;128070;-65
2022/11/04 08:59:01;;;;;;;;;;;;;;;14.14;51.81;99640.66;4940244;28;97949;-65
2022/11/04 09:01:27;;;;;;;;;;;;;;;14.13;52.01;99629.03;4936933;28;98243;-66
2022/11/04 09:03:53;;;;;;;;;;;;;;;14.16;51.82;99624.91;4948476;28;117625;-65
2022/11/04 09:06:25;;;;;;;;;;;;;;;14.20;52.06;99615.03;4936466;28;126844;-66
2022/11/04 09:08:51;;;;;;;;;;;;;;;14.22;51.62;99618.22;4937390;28;109285;-65
2022/11/04 09:11:17;;;;;;;;;;;;;;;14.25;51.82;99623.03;4938700;28;98528;-65
2022/11/04 09:13:43;;;;;;;;;;;;;;;14.27;51.64;99622.72;4936381;28;98883;-65
2022/11/04 09:16:10;;;;;;;;;;;;;;;14.32;51.58;99625.28;4939360;28;98436;-65
2022/11/04 09:18:36;;;;;;;;;;;;;;;14.30;51.55;99627.50;4937829;28;98174;-65
2022/11/04 09:21:02;;;;;;;;;;;;;;;14.31;51.87;99616.38;4938284;28;106593;-65
2022/11/04 09:23:28;;;;;;;;;;;;;;;14.36;51.64;99607.28;4954845;28;120654;-66
2022/11/04 09:25:56;;;;;;;;;;;;;;;14.43;51.59;99611.16;4936412;28;127458;-65
2022/11/04 09:28:22;;;;;;;;;;;;;;;14.47;51.69;99612.13;4937724;28;98284;-65
2022/11/04 09:30:48;;;;;;;;;;;;;;;14.49;51.81;99615.34;4938990;28;128414;-66
2022/11/04 09:33:13;;;;;;;;;;;;;;;14.48;51.46;99616.44;4935467;28;124343;-65
2022/11/04 09:35:39;;;;;;;;;;;;;;;14.49;51.48;99628.88;4937430;28;127173;-65
2022/11/04 09:38:05;;;;;;;;;;;;;;;14.49;51.61;99628.88;4939343;28;98558;-65
2022/11/04 09:40:33;;;;;;;;;;;;;;;14.52;51.49;99623.97;4953552;28;126583;-65
2022/11/04 09:43:29;;;;;;;;;;;;;;;14.54;51.61;99624.44;4952402;27;98700;-65
2022/11/04 09:45:55;;;;;;;;;;;;;;;14.54;51.52;99614.41;4954218;28;127806;-65
2022/11/04 09:48:28;;;;;;;;;;;;;;;14.50;52.01;99610.72;4937442;28;98027;-64
2022/11/04 09:50:59;;;;;;;;;;;;;;;14.48;51.91;99602.88;4936380;28;99675;-66
2022/11/04 09:53:41;;;;;;;;;;;;;;;14.46;51.81;99613.25;4921513;28;98809;-66
2022/11/04 09:56:13;;;;;;;;;;;;;;;14.47;51.88;99603.19;4936662;28;98104;-65
2022/11/04 09:58:39;;;;;;;;;;;;;;;14.51;51.52;99608.81;4956524;28;98072;-65
2022/11/04 10:01:29;;;;;;;;;;;;;;;14.51;51.98;99617.75;4937061;28;98752;-66
2022/11/04 10:04:01;;;;;;;;;;;;;;;14.50;51.63;99626.97;4953840;28;98353;-66
2022/11/04 10:06:29;;;;;;;;;;;;;;;14.45;51.75;99636.03;4937528;28;100742;-66
2022/11/04 10:09:10;;;;;;;;;;;;;;;14.40;52.13;99641.59;4940514;28;97982;-65
2022/11/04 10:12:15;;;;;;;;;;;;;;;14.36;52.17;99640.63;4931865;28;98698;-65
2022/11/04 10:15:08;;;;;;;;;;;;;;;14.29;52.15;99642.97;4932931;28;99481;-66
2022/11/04 10:18:06;;;;;;;;;;;;;;;14.23;52.14;99645.03;4931314;28;98284;-65
2022/11/04 10:20:39;;;;;;;;;;;;;;;14.18;51.94;99647.84;4937277;28;98551;-66
2022/11/04 10:23:14;;;;;;;;;;;;;;;14.13;52.03;99658.81;4936890;28;116831;-66
2022/11/04 10:26:02;;;;;;;;;;;;;;;14.11;52.56;99665.66;4946674;28;129328;-65
2022/11/04 10:28:51;;;;;;;;;;;;;;;14.07;52.18;99670.09;4936282;28;114312;-66
2022/11/04 10:31:18;;;;;;;;;;;;;;;14.02;52.23;99675.66;4952642;28;98242;-66
2022/11/04 10:33:49;;;;;;;;;;;;;;;13.96;52.37;99673.09;4935041;28;118376;-65
2022/11/04 10:36:15;;;;;;;;;;;;;;;13.93;52.45;99676.41;4936725;28;98474;-65
2022/11/04 10:38:51;;;;;;;;;;;;;;;13.89;52.31;99670.00;4935547;28;121231;-66
2022/11/04 10:41:23;;;;;;;;;;;;;;;13.87;52.14;99682.25;4929757;28;98946;-66
2022/11/04 10:43:50;;;;;;;;;;;;;;;13.81;52.34;99689.69;4932596;28;99097;-66
2022/11/04 10:46:29;;;;;;;;;;;;;;;13.78;52.11;99690.31;4933107;28;124757;-67
2022/11/04 10:49:33;;;;;;;;;;;;;;;13.73;52.35;99688.53;4935850;28;100905;-67
2022/11/04 10:52:01;;;;;;;;;;;;;;;13.72;52.11;99688.84;4937180;28;98289;-67
2022/11/04 10:54:27;;;;;;;;;;;;;;;13.71;52.40;99690.72;4938223;28;127874;-67
2022/11/04 10:56:53;;;;;;;;;;;;;;;13.69;52.37;99698.38;4936260;28;128188;-67
2022/11/04 10:59:27;;;;;;;;;;;;;;;13.68;52.49;99704.91;4937989;28;98041;-66
2022/11/04 11:01:57;;;;;;;;;;;;;;;13.66;52.51;99707.09;4937097;28;97835;-66
2022/11/04 11:04:34;;;;;;;;;;;;;;;13.63;52.22;99710.41;4938210;28;98371;-66
2022/11/04 11:07:04;;;;;;;;;;;;;;;13.63;52.32;99696.88;4936960;28;127783;-66
2022/11/04 11:09:35;;;;;;;;;;;;;;;13.64;52.06;99695.78;4939223;28;104272;-66
2022/11/04 11:12:02;;;;;;;;;;;;;;;13.68;52.26;99688.66;4933920;28;98110;-67
2022/11/04 11:14:28;;;;;;;;;;;;;;;13.71;52.28;99687.22;4955780;28;99177;-66
2022/11/04 11:16:54;;;;;;;;;;;;;;;13.71;52.00;99687.22;4935933;28;98293;-66
2022/11/04 11:19:21;;;;;;;;;;;;;;;13.72;51.93;99688.84;4951575;28;121177;-66
2022/11/04 11:21:54;;;;;;;;;;;;;;;13.70;52.15;99691.03;4937883;28;97820;-66
2022/11/04 11:24:21;;;;;;;;;;;;;;;13.69;52.01;99697.56;4938696;28;106737;-66
2022/11/04 11:27:00;;;;;;;;;;;;;;;13.67;52.10;99703.28;4934125;28;98845;-66
2022/11/04 11:29:27;;;;;;;;;;;;;;;13.68;52.29;99704.91;4951270;28;122512;-67
2022/11/04 11:31:54;;;;;;;;;;;;;;;13.66;52.26;99704.38;4935181;28;98061;-66
2022/11/04 11:34:29;;;;;;;;;;;;;;;13.64;51.99;99713.94;4934345;28;98120;-66
2022/11/04 11:36:55;;;;;;;;;;;;;;;13.64;52.32;99712.03;4933967;28;98965;-66
2022/11/04 11:39:26;;;;;;;;;;;;;;;13.63;52.17;99710.41;4920352;28;108250;-66
2022/11/04 11:42:06;;;;;;;;;;;;;;;13.64;52.01;99709.31;4952948;28;98133;-66
2022/11/04 11:44:42;;;;;;;;;;;;;;;13.64;51.92;99709.31;4919888;28;98458;-66
2022/11/04 11:47:29;;;;;;;;;;;;;;;13.65;52.01;99704.72;4911899;28;98504;-66
2022/11/04 11:50:34;;;;;;;;;;;;;;;13.66;51.89;99707.09;4933461;28;98392;-66
2022/11/04 11:53:18;;;;;;;;;;;;;;;13.66;52.31;99698.19;4934376;28;97975;-66
2022/11/04 11:56:00;;;;;;;;;;;;;;;13.66;51.91;99693.56;4936429;28;98318;-66
2022/11/04 11:58:54;;;;;;;;;;;;;;;13.65;51.93;99702.00;4950603;28;128123;-66
2022/11/04 12:01:35;;;;;;;;;;;;;;;13.63;52.06;99713.13;4932067;28;98801;-66
2022/11/04 12:04:01;;;;;;;;;;;;;;;13.62;52.18;99706.09;4934621;28;97903;-66
2022/11/04 12:06:42;;;;;;;;;;;;;;;13.63;52.09;99704.19;4918726;28;121920;-66
2022/11/04 12:09:20;;;;;;;;;;;;;;;13.66;52.20;99703.59;4934978;28;98833;-66
2022/11/04 12:12:11;;;;;;;;;;;;;;;13.72;52.10;99699.69;4936619;28;98164;-66
2022/11/04 12:15:08;;;;;;;;;;;;;;;13.82;51.68;99704.84;4938919;28;102659;-67
2022/11/04 12:17:50;;;;;;;;;;;;;;;13.83;51.92;99706.44;4935595;28;98444;-66
2022/11/04 12:20:50;;;;;;;;;;;;;;;13.86;51.73;99710.44;4933336;28;127881;-66
2022/11/04 12:23:35;;;;;;;;;;;;;;;13.88;52.16;99719.88;4058649;28;10000944;-66
2022/11/04 12:26:24;;;;;;;;;;;;;;;13.86;52.20;99718.56;4941763;28;98476;-66
2022/11/04 12:28:59;;;;;;;;;;;;;;;13.84;52.03;99715.38;4962586;28;98075;-66
2022/11/04 12:31:33;;;;;;;;;;;;;;;13.83;52.25;99719.97;4955732;28;98240;-66
2022/11/04 12:34:18;;;;;;;;;;;;;;;13.83;52.03;99716.47;4970517;27;99470;-66
2022/11/04 12:37:08;;;;;;;;;;;;;;;13.85;51.99;99715.06;4953806;28;98433;-66
2022/11/04 12:40:06;;;;;;;;;;;;;;;13.90;52.19;99714.94;4955139;28;123857;-67
2022/11/04 12:42:44;;;;;;;;;;;;;;;13.91;52.13;99708.44;4975493;27;114898;-66
2022/11/04 12:45:31;;;;;;;;;;;;;;;13.92;52.24;99707.31;4957002;28;99493;-66
2022/11/04 12:48:06;;;;;;;;;;;;;;;13.90;51.93;99703.31;4958822;28;97942;-65
2022/11/04 12:51:10;;;;;;;;;;;;;;;13.88;52.23;99703.63;4953819;28;128486;-66
2022/11/04 12:53:42;;;;;;;;;;;;;;;13.85;52.23;99708.84;4946623;28;98028;-66
2022/11/04 12:56:12;;;;;;;;;;;;;;;13.83;52.08;99703.72;4958497;28;99211;-66
2022/11/04 12:58:41;;;;;;;;;;;;;;;13.82;51.90;99706.75;4958088;28;99494;-66
2022/11/04 13:01:14;;;;;;;;;;;;;;;13.83;52.18;99697.50;4957356;28;100832;-66
2022/11/04 13:03:43;;;;;;;;;;;;;;;13.83;52.10;99697.50;4963723;28;98058;-66
2022/11/04 13:06:26;;;;;;;;;;;;;;;13.84;52.27;99691.00;4955607;28;99357;-66
2022/11/04 13:09:15;;;;;;;;;;;;;;;13.87;51.95;99684.94;4955132;28;118751;-66
2022/11/04 13:11:54;;;;;;;;;;;;;;;13.88;52.25;99679.25;4954135;27;99687;-65
2022/11/04 13:14:30;;;;;;;;;;;;;;;13.88;51.91;99689.28;4960765;28;98133;-66
2022/11/04 13:17:02;;;;;;;;;;;;;;;13.88;52.20;99681.94;4954519;28;98412;-66
2022/11/04 13:19:44;;;;;;;;;;;;;;;13.87;51.96;99680.34;4958055;28;120863;-65
2022/11/04 13:22:18;;;;;;;;;;;;;;;13.86;52.26;99691.47;4950711;28;125874;-66
2022/11/04 13:24:50;;;;;;;;;;;;;;;13.82;52.33;99691.28;4942236;28;98200;-67
2022/11/04 13:27:21;;;;;;;;;;;;;;;13.80;52.32;99698.16;4958010;28;123769;-66
2022/11/04 13:29:49;;;;;;;;;;;;;;;13.78;52.14;99694.94;4957569;28;98517;-66
2022/11/04 13:32:31;;;;;;;;;;;;;;;13.73;52.46;99699.34;4955244;28;98044;-66
2022/11/04 13:35:18;;;;;;;;;;;;;;;13.71;52.41;99689.94;4963212;28;110829;-66